sensor_id;sensor_type;location;lat;lon;timestamp;P1;durP1;ratioP1;P2;durP2;ratioP2
14748;SDS011;7466;53.574;9.976;2023-06-10T00:01:45;7.33;;;5.57;;
14748;SDS011;7466;53.574;9.976;2023-06-10T00:04:13;9.63;;;5.17;;
14748;SDS011;7466;53.574;9.976;2023-06-10T00:06:39;9.13;;;5.60;;
14748;SDS011;7466;53.574;9.976;2023-06-10T00:09:06;8.30;;;5.43;;
14748;SDS011;7466;53.574;9.976;2023-06-10T00:11:35;12.30;;;5.80;;
14748;SDS011;7466;53.574;9.976;2023-06-10T00:14:02;11.37;;;5.47;;
14748;SDS011;7466;53.574;9.976;2023-06-10T00:16:31;9.80;;;5.57;;
14748;SDS011;7466;53.574;9.976;2023-06-10T00:18:58;7.17;;;5.23;;
14748;SDS011;7466;53.574;9.976;2023-06-10T00:21:26;9.50;;;5.70;;
14748;SDS011;7466;53.574;9.976;2023-06-10T00:23:53;6.40;;;5.33;;
14748;SDS011;7466;53.574;9.976;2023-06-10T00:26:20;6.57;;;4.87;;
14748;SDS011;7466;53.574;9.976;2023-06-10T00:28:47;10.03;;;4.70;;
14748;SDS011;7466;53.574;9.976;2023-06-10T00:31:14;10.37;;;5.30;;
14748;SDS011;7466;53.574;9.976;2023-06-10T00:33:42;9.30;;;5.30;;
14748;SDS011;7466;53.574;9.976;2023-06-10T00:36:09;10.10;;;4.93;;
14748;SDS011;7466;53.574;9.976;2023-06-10T00:38:36;7.13;;;4.67;;
14748;SDS011;7466;53.574;9.976;2023-06-10T00:41:03;5.83;;;4.60;;
14748;SDS011;7466;53.574;9.976;2023-06-10T00:43:30;10.80;;;4.93;;
14748;SDS011;7466;53.574;9.976;2023-06-10T00:45:57;5.10;;;4.60;;
14748;SDS011;7466;53.574;9.976;2023-06-10T00:48:24;5.90;;;4.43;;
14748;SDS011;7466;53.574;9.976;2023-06-10T00:50:53;5.03;;;4.53;;
14748;SDS011;7466;53.574;9.976;2023-06-10T00:53:20;6.60;;;4.27;;
14748;SDS011;7466;53.574;9.976;2023-06-10T00:55:48;8.27;;;4.57;;
14748;SDS011;7466;53.574;9.976;2023-06-10T00:58:14;6.00;;;4.70;;
14748;SDS011;7466;53.574;9.976;2023-06-10T01:00:41;6.87;;;4.30;;
14748;SDS011;7466;53.574;9.976;2023-06-10T01:03:10;8.87;;;4.33;;
14748;SDS011;7466;53.574;9.976;2023-06-10T01:05:37;7.70;;;4.70;;
14748;SDS011;7466;53.574;9.976;2023-06-10T01:08:09;9.83;;;4.93;;
14748;SDS011;7466;53.574;9.976;2023-06-10T01:10:57;11.67;;;4.40;;
14748;SDS011;7466;53.574;9.976;2023-06-10T01:13:26;4.87;;;4.10;;
14748;SDS011;7466;53.574;9.976;2023-06-10T01:15:55;7.20;;;4.03;;
14748;SDS011;7466;53.574;9.976;2023-06-10T01:18:22;9.77;;;4.20;;
14748;SDS011;7466;53.574;9.976;2023-06-10T01:20:50;9.67;;;4.53;;
14748;SDS011;7466;53.574;9.976;2023-06-10T01:23:18;6.60;;;4.43;;
14748;SDS011;7466;53.574;9.976;2023-06-10T01:25:45;8.33;;;4.20;;
14748;SDS011;7466;53.574;9.976;2023-06-10T01:28:17;8.07;;;4.30;;
14748;SDS011;7466;53.574;9.976;2023-06-10T01:31:03;10.63;;;4.17;;
14748;SDS011;7466;53.574;9.976;2023-06-10T01:33:37;7.33;;;4.20;;
14748;SDS011;7466;53.574;9.976;2023-06-10T01:36:13;4.73;;;4.07;;
14748;SDS011;7466;53.574;9.976;2023-06-10T01:38:45;6.47;;;4.30;;
14748;SDS011;7466;53.574;9.976;2023-06-10T01:41:13;6.40;;;4.00;;
14748;SDS011;7466;53.574;9.976;2023-06-10T01:43:42;6.70;;;4.23;;
14748;SDS011;7466;53.574;9.976;2023-06-10T01:46:10;8.57;;;4.17;;
14748;SDS011;7466;53.574;9.976;2023-06-10T01:48:37;5.33;;;3.80;;
14748;SDS011;7466;53.574;9.976;2023-06-10T01:51:04;7.57;;;3.77;;
14748;SDS011;7466;53.574;9.976;2023-06-10T01:53:31;10.97;;;4.20;;
14748;SDS011;7466;53.574;9.976;2023-06-10T01:55:59;6.10;;;3.70;;
14748;SDS011;7466;53.574;9.976;2023-06-10T01:58:26;5.27;;;3.63;;
14748;SDS011;7466;53.574;9.976;2023-06-10T02:00:52;5.83;;;3.90;;
14748;SDS011;7466;53.574;9.976;2023-06-10T02:03:19;9.30;;;4.13;;
14748;SDS011;7466;53.574;9.976;2023-06-10T02:05:46;7.67;;;3.73;;
14748;SDS011;7466;53.574;9.976;2023-06-10T02:08:13;4.53;;;3.43;;
14748;SDS011;7466;53.574;9.976;2023-06-10T02:10:40;7.70;;;3.77;;
14748;SDS011;7466;53.574;9.976;2023-06-10T02:13:08;6.37;;;3.73;;
14748;SDS011;7466;53.574;9.976;2023-06-10T02:15:35;11.47;;;4.40;;
14748;SDS011;7466;53.574;9.976;2023-06-10T02:18:01;4.53;;;3.33;;
14748;SDS011;7466;53.574;9.976;2023-06-10T02:20:28;5.70;;;3.80;;
14748;SDS011;7466;53.574;9.976;2023-06-10T02:22:55;5.60;;;3.37;;
14748;SDS011;7466;53.574;9.976;2023-06-10T02:25:22;8.27;;;3.40;;
14748;SDS011;7466;53.574;9.976;2023-06-10T02:27:49;11.80;;;3.60;;
14748;SDS011;7466;53.574;9.976;2023-06-10T02:30:17;6.33;;;3.53;;
14748;SDS011;7466;53.574;9.976;2023-06-10T02:32:44;6.23;;;3.57;;
14748;SDS011;7466;53.574;9.976;2023-06-10T02:35:13;6.43;;;3.60;;
14748;SDS011;7466;53.574;9.976;2023-06-10T02:37:40;5.17;;;3.20;;
14748;SDS011;7466;53.574;9.976;2023-06-10T02:40:07;5.47;;;3.07;;
14748;SDS011;7466;53.574;9.976;2023-06-10T02:42:35;6.00;;;3.17;;
14748;SDS011;7466;53.574;9.976;2023-06-10T02:45:02;9.07;;;3.30;;
14748;SDS011;7466;53.574;9.976;2023-06-10T02:47:30;6.17;;;3.40;;
14748;SDS011;7466;53.574;9.976;2023-06-10T02:49:57;6.50;;;3.10;;
14748;SDS011;7466;53.574;9.976;2023-06-10T02:52:24;7.67;;;3.77;;
14748;SDS011;7466;53.574;9.976;2023-06-10T02:54:51;7.20;;;3.27;;
14748;SDS011;7466;53.574;9.976;2023-06-10T02:57:18;7.37;;;3.70;;
14748;SDS011;7466;53.574;9.976;2023-06-10T02:59:44;5.43;;;3.13;;
14748;SDS011;7466;53.574;9.976;2023-06-10T03:02:11;10.27;;;2.97;;
14748;SDS011;7466;53.574;9.976;2023-06-10T03:04:40;6.70;;;3.40;;
14748;SDS011;7466;53.574;9.976;2023-06-10T03:07:08;6.00;;;3.10;;
14748;SDS011;7466;53.574;9.976;2023-06-10T03:09:36;7.23;;;2.83;;
14748;SDS011;7466;53.574;9.976;2023-06-10T03:12:03;10.43;;;3.73;;
14748;SDS011;7466;53.574;9.976;2023-06-10T03:14:31;7.50;;;3.20;;
14748;SDS011;7466;53.574;9.976;2023-06-10T03:16:57;9.57;;;3.50;;
14748;SDS011;7466;53.574;9.976;2023-06-10T03:19:24;6.70;;;2.87;;
14748;SDS011;7466;53.574;9.976;2023-06-10T03:21:59;6.00;;;3.13;;
14748;SDS011;7466;53.574;9.976;2023-06-10T03:24:34;6.43;;;2.97;;
14748;SDS011;7466;53.574;9.976;2023-06-10T03:27:01;7.27;;;3.23;;
14748;SDS011;7466;53.574;9.976;2023-06-10T03:29:30;5.50;;;3.23;;
14748;SDS011;7466;53.574;9.976;2023-06-10T03:31:57;7.17;;;3.23;;
14748;SDS011;7466;53.574;9.976;2023-06-10T03:34:24;8.07;;;3.03;;
14748;SDS011;7466;53.574;9.976;2023-06-10T03:36:51;5.97;;;2.93;;
14748;SDS011;7466;53.574;9.976;2023-06-10T03:39:19;4.23;;;3.13;;
14748;SDS011;7466;53.574;9.976;2023-06-10T03:41:45;6.37;;;2.63;;
14748;SDS011;7466;53.574;9.976;2023-06-10T03:44:13;6.53;;;2.73;;
14748;SDS011;7466;53.574;9.976;2023-06-10T03:46:41;5.87;;;2.63;;
14748;SDS011;7466;53.574;9.976;2023-06-10T03:49:07;7.67;;;2.80;;
14748;SDS011;7466;53.574;9.976;2023-06-10T03:51:35;6.97;;;3.00;;
14748;SDS011;7466;53.574;9.976;2023-06-10T03:54:02;5.43;;;2.70;;
14748;SDS011;7466;53.574;9.976;2023-06-10T03:56:30;5.80;;;2.73;;
14748;SDS011;7466;53.574;9.976;2023-06-10T03:58:57;7.20;;;3.00;;
14748;SDS011;7466;53.574;9.976;2023-06-10T04:01:24;6.30;;;2.80;;
14748;SDS011;7466;53.574;9.976;2023-06-10T04:03:51;6.13;;;2.60;;
14748;SDS011;7466;53.574;9.976;2023-06-10T04:06:19;6.97;;;2.97;;
14748;SDS011;7466;53.574;9.976;2023-06-10T04:08:47;7.07;;;2.97;;
14748;SDS011;7466;53.574;9.976;2023-06-10T04:11:14;5.83;;;2.60;;
14748;SDS011;7466;53.574;9.976;2023-06-10T04:13:42;7.23;;;3.07;;
14748;SDS011;7466;53.574;9.976;2023-06-10T04:16:09;9.30;;;2.80;;
14748;SDS011;7466;53.574;9.976;2023-06-10T04:18:36;6.63;;;2.63;;
14748;SDS011;7466;53.574;9.976;2023-06-10T04:21:03;6.30;;;2.50;;
14748;SDS011;7466;53.574;9.976;2023-06-10T04:23:30;6.10;;;2.73;;
14748;SDS011;7466;53.574;9.976;2023-06-10T04:25:56;5.93;;;2.63;;
14748;SDS011;7466;53.574;9.976;2023-06-10T04:28:24;5.97;;;3.10;;
14748;SDS011;7466;53.574;9.976;2023-06-10T04:30:53;6.53;;;2.70;;
14748;SDS011;7466;53.574;9.976;2023-06-10T04:33:20;7.17;;;2.63;;
14748;SDS011;7466;53.574;9.976;2023-06-10T04:35:46;6.90;;;2.70;;
14748;SDS011;7466;53.574;9.976;2023-06-10T04:38:13;6.63;;;2.90;;
14748;SDS011;7466;53.574;9.976;2023-06-10T04:40:40;5.20;;;2.73;;
14748;SDS011;7466;53.574;9.976;2023-06-10T04:43:07;5.50;;;2.90;;
14748;SDS011;7466;53.574;9.976;2023-06-10T04:45:34;4.63;;;2.73;;
14748;SDS011;7466;53.574;9.976;2023-06-10T04:48:02;9.03;;;2.83;;
14748;SDS011;7466;53.574;9.976;2023-06-10T04:50:29;6.30;;;2.23;;
14748;SDS011;7466;53.574;9.976;2023-06-10T04:52:58;6.73;;;2.53;;
14748;SDS011;7466;53.574;9.976;2023-06-10T04:55:25;6.10;;;2.30;;
14748;SDS011;7466;53.574;9.976;2023-06-10T04:57:52;4.80;;;2.53;;
14748;SDS011;7466;53.574;9.976;2023-06-10T05:00:18;4.80;;;2.57;;
14748;SDS011;7466;53.574;9.976;2023-06-10T05:02:45;5.57;;;2.60;;
14748;SDS011;7466;53.574;9.976;2023-06-10T05:05:15;4.70;;;2.37;;
14748;SDS011;7466;53.574;9.976;2023-06-10T05:07:42;5.53;;;2.53;;
14748;SDS011;7466;53.574;9.976;2023-06-10T05:10:09;4.90;;;2.43;;
14748;SDS011;7466;53.574;9.976;2023-06-10T05:12:37;8.50;;;2.73;;
14748;SDS011;7466;53.574;9.976;2023-06-10T05:15:04;9.27;;;2.70;;
14748;SDS011;7466;53.574;9.976;2023-06-10T05:17:32;5.83;;;2.70;;
14748;SDS011;7466;53.574;9.976;2023-06-10T05:19:59;6.70;;;2.90;;
14748;SDS011;7466;53.574;9.976;2023-06-10T05:22:28;8.10;;;2.80;;
14748;SDS011;7466;53.574;9.976;2023-06-10T05:24:55;8.50;;;2.67;;
14748;SDS011;7466;53.574;9.976;2023-06-10T05:27:21;6.27;;;3.00;;
14748;SDS011;7466;53.574;9.976;2023-06-10T05:29:49;6.43;;;2.50;;
14748;SDS011;7466;53.574;9.976;2023-06-10T05:32:16;6.20;;;2.67;;
14748;SDS011;7466;53.574;9.976;2023-06-10T05:34:43;5.83;;;2.53;;
14748;SDS011;7466;53.574;9.976;2023-06-10T05:37:10;6.30;;;2.60;;
14748;SDS011;7466;53.574;9.976;2023-06-10T05:39:38;5.80;;;2.83;;
14748;SDS011;7466;53.574;9.976;2023-06-10T05:42:06;5.83;;;2.60;;
14748;SDS011;7466;53.574;9.976;2023-06-10T05:44:34;5.57;;;3.00;;
14748;SDS011;7466;53.574;9.976;2023-06-10T05:47:00;6.77;;;3.00;;
14748;SDS011;7466;53.574;9.976;2023-06-10T05:49:28;5.77;;;2.80;;
14748;SDS011;7466;53.574;9.976;2023-06-10T05:51:54;7.27;;;2.40;;
14748;SDS011;7466;53.574;9.976;2023-06-10T05:54:23;4.40;;;2.50;;
14748;SDS011;7466;53.574;9.976;2023-06-10T05:56:51;7.83;;;2.70;;
14748;SDS011;7466;53.574;9.976;2023-06-10T05:59:18;7.87;;;2.90;;
14748;SDS011;7466;53.574;9.976;2023-06-10T06:01:45;4.70;;;2.63;;
14748;SDS011;7466;53.574;9.976;2023-06-10T06:04:12;6.13;;;2.60;;
14748;SDS011;7466;53.574;9.976;2023-06-10T06:06:39;5.10;;;2.60;;
14748;SDS011;7466;53.574;9.976;2023-06-10T06:09:06;6.00;;;2.77;;
14748;SDS011;7466;53.574;9.976;2023-06-10T06:11:33;7.73;;;2.47;;
14748;SDS011;7466;53.574;9.976;2023-06-10T06:14:02;6.33;;;3.00;;
14748;SDS011;7466;53.574;9.976;2023-06-10T06:16:28;9.53;;;2.87;;
14748;SDS011;7466;53.574;9.976;2023-06-10T06:18:55;8.87;;;3.00;;
14748;SDS011;7466;53.574;9.976;2023-06-10T06:21:22;8.83;;;2.70;;
14748;SDS011;7466;53.574;9.976;2023-06-10T06:23:49;7.57;;;2.87;;
14748;SDS011;7466;53.574;9.976;2023-06-10T06:26:16;8.80;;;2.80;;
14748;SDS011;7466;53.574;9.976;2023-06-10T06:28:42;5.70;;;2.57;;
14748;SDS011;7466;53.574;9.976;2023-06-10T06:31:11;5.27;;;2.80;;
14748;SDS011;7466;53.574;9.976;2023-06-10T06:33:37;7.40;;;2.97;;
14748;SDS011;7466;53.574;9.976;2023-06-10T06:36:05;6.53;;;2.57;;
14748;SDS011;7466;53.574;9.976;2023-06-10T06:38:32;6.57;;;2.80;;
14748;SDS011;7466;53.574;9.976;2023-06-10T06:40:58;7.07;;;2.97;;
14748;SDS011;7466;53.574;9.976;2023-06-10T06:43:28;5.33;;;2.70;;
14748;SDS011;7466;53.574;9.976;2023-06-10T06:45:55;4.60;;;2.47;;
14748;SDS011;7466;53.574;9.976;2023-06-10T06:48:24;8.07;;;2.93;;
14748;SDS011;7466;53.574;9.976;2023-06-10T06:50:51;6.70;;;2.80;;
14748;SDS011;7466;53.574;9.976;2023-06-10T06:53:18;10.27;;;3.00;;
14748;SDS011;7466;53.574;9.976;2023-06-10T06:55:45;8.87;;;2.90;;
14748;SDS011;7466;53.574;9.976;2023-06-10T06:58:12;4.23;;;2.57;;
14748;SDS011;7466;53.574;9.976;2023-06-10T07:00:39;10.67;;;3.20;;
14748;SDS011;7466;53.574;9.976;2023-06-10T07:03:05;6.67;;;2.90;;
14748;SDS011;7466;53.574;9.976;2023-06-10T07:05:34;5.37;;;2.67;;
14748;SDS011;7466;53.574;9.976;2023-06-10T07:08:01;5.53;;;2.80;;
14748;SDS011;7466;53.574;9.976;2023-06-10T07:10:30;4.70;;;3.00;;
14748;SDS011;7466;53.574;9.976;2023-06-10T07:12:56;3.43;;;2.40;;
14748;SDS011;7466;53.574;9.976;2023-06-10T07:15:23;8.50;;;3.20;;
14748;SDS011;7466;53.574;9.976;2023-06-10T07:17:50;7.17;;;2.77;;
14748;SDS011;7466;53.574;9.976;2023-06-10T07:20:17;6.10;;;3.17;;
14748;SDS011;7466;53.574;9.976;2023-06-10T07:22:45;5.10;;;2.90;;
14748;SDS011;7466;53.574;9.976;2023-06-10T07:25:12;7.23;;;2.60;;
14748;SDS011;7466;53.574;9.976;2023-06-10T07:27:40;4.70;;;2.77;;
14748;SDS011;7466;53.574;9.976;2023-06-10T07:30:08;7.30;;;3.13;;
14748;SDS011;7466;53.574;9.976;2023-06-10T07:32:36;6.43;;;2.90;;
14748;SDS011;7466;53.574;9.976;2023-06-10T07:35:03;6.17;;;3.07;;
14748;SDS011;7466;53.574;9.976;2023-06-10T07:37:31;8.63;;;3.07;;
14748;SDS011;7466;53.574;9.976;2023-06-10T07:40:00;6.37;;;3.17;;
14748;SDS011;7466;53.574;9.976;2023-06-10T07:42:27;5.23;;;2.80;;
14748;SDS011;7466;53.574;9.976;2023-06-10T07:44:53;7.87;;;3.00;;
14748;SDS011;7466;53.574;9.976;2023-06-10T07:47:21;6.90;;;2.87;;
14748;SDS011;7466;53.574;9.976;2023-06-10T07:49:48;5.53;;;2.60;;
14748;SDS011;7466;53.574;9.976;2023-06-10T07:52:15;5.63;;;3.10;;
14748;SDS011;7466;53.574;9.976;2023-06-10T07:54:42;6.17;;;2.93;;
14748;SDS011;7466;53.574;9.976;2023-06-10T07:57:10;6.00;;;3.20;;
14748;SDS011;7466;53.574;9.976;2023-06-10T07:59:37;7.00;;;3.00;;
14748;SDS011;7466;53.574;9.976;2023-06-10T08:02:04;7.93;;;3.10;;
14748;SDS011;7466;53.574;9.976;2023-06-10T08:04:31;5.53;;;2.70;;
14748;SDS011;7466;53.574;9.976;2023-06-10T08:07:00;5.37;;;2.80;;
14748;SDS011;7466;53.574;9.976;2023-06-10T08:09:27;8.83;;;3.00;;
14748;SDS011;7466;53.574;9.976;2023-06-10T08:11:54;6.67;;;2.90;;
14748;SDS011;7466;53.574;9.976;2023-06-10T08:14:22;6.37;;;3.23;;
14748;SDS011;7466;53.574;9.976;2023-06-10T08:16:49;5.87;;;3.17;;
14748;SDS011;7466;53.574;9.976;2023-06-10T08:19:16;5.40;;;3.50;;
14748;SDS011;7466;53.574;9.976;2023-06-10T08:21:49;3.03;;;2.70;;
14748;SDS011;7466;53.574;9.976;2023-06-10T08:24:16;6.17;;;3.43;;
14748;SDS011;7466;53.574;9.976;2023-06-10T08:26:43;6.03;;;3.10;;
14748;SDS011;7466;53.574;9.976;2023-06-10T08:29:11;7.67;;;3.20;;
14748;SDS011;7466;53.574;9.976;2023-06-10T08:31:42;9.50;;;3.00;;
14748;SDS011;7466;53.574;9.976;2023-06-10T08:34:09;6.50;;;2.83;;
14748;SDS011;7466;53.574;9.976;2023-06-10T08:36:37;6.13;;;3.27;;
14748;SDS011;7466;53.574;9.976;2023-06-10T08:39:03;8.73;;;3.20;;
14748;SDS011;7466;53.574;9.976;2023-06-10T08:41:30;7.87;;;3.03;;
14748;SDS011;7466;53.574;9.976;2023-06-10T08:44:03;8.03;;;3.17;;
14748;SDS011;7466;53.574;9.976;2023-06-10T08:46:34;6.63;;;3.23;;
14748;SDS011;7466;53.574;9.976;2023-06-10T08:49:05;4.00;;;2.77;;
14748;SDS011;7466;53.574;9.976;2023-06-10T08:51:39;6.13;;;3.57;;
14748;SDS011;7466;53.574;9.976;2023-06-10T08:54:10;7.73;;;3.50;;
14748;SDS011;7466;53.574;9.976;2023-06-10T08:56:44;6.00;;;3.33;;
14748;SDS011;7466;53.574;9.976;2023-06-10T08:59:13;6.53;;;3.40;;
14748;SDS011;7466;53.574;9.976;2023-06-10T09:01:42;7.30;;;3.38;;
14748;SDS011;7466;53.574;9.976;2023-06-10T09:04:10;3.13;;;2.80;;
14748;SDS011;7466;53.574;9.976;2023-06-10T09:06:38;5.40;;;3.23;;
14748;SDS011;7466;53.574;9.976;2023-06-10T09:09:06;6.93;;;3.40;;
14748;SDS011;7466;53.574;9.976;2023-06-10T09:11:33;6.25;;;3.63;;
14748;SDS011;7466;53.574;9.976;2023-06-10T09:14:00;5.72;;;3.22;;
14748;SDS011;7466;53.574;9.976;2023-06-10T09:16:27;6.63;;;3.70;;
14748;SDS011;7466;53.574;9.976;2023-06-10T09:18:54;4.85;;;3.45;;
14748;SDS011;7466;53.574;9.976;2023-06-10T09:21:23;8.27;;;3.80;;
14748;SDS011;7466;53.574;9.976;2023-06-10T09:23:50;6.38;;;3.38;;
14748;SDS011;7466;53.574;9.976;2023-06-10T09:26:17;7.28;;;3.85;;
14748;SDS011;7466;53.574;9.976;2023-06-10T09:28:47;5.10;;;3.60;;
14748;SDS011;7466;53.574;9.976;2023-06-10T09:31:15;4.30;;;3.35;;
14748;SDS011;7466;53.574;9.976;2023-06-10T09:33:43;4.15;;;3.65;;
14748;SDS011;7466;53.574;9.976;2023-06-10T09:36:11;7.07;;;3.85;;
14748;SDS011;7466;53.574;9.976;2023-06-10T09:38:39;7.70;;;3.35;;
14748;SDS011;7466;53.574;9.976;2023-06-10T09:41:05;5.88;;;3.67;;
14748;SDS011;7466;53.574;9.976;2023-06-10T09:43:39;7.60;;;4.18;;
14748;SDS011;7466;53.574;9.976;2023-06-10T09:46:07;6.00;;;3.70;;
14748;SDS011;7466;53.574;9.976;2023-06-10T09:48:41;5.35;;;3.67;;
14748;SDS011;7466;53.574;9.976;2023-06-10T09:51:09;5.25;;;3.72;;
14748;SDS011;7466;53.574;9.976;2023-06-10T09:53:36;6.88;;;3.92;;
14748;SDS011;7466;53.574;9.976;2023-06-10T09:56:04;6.32;;;3.40;;
14748;SDS011;7466;53.574;9.976;2023-06-10T09:58:35;5.35;;;3.40;;
14748;SDS011;7466;53.574;9.976;2023-06-10T10:01:06;5.60;;;3.58;;
14748;SDS011;7466;53.574;9.976;2023-06-10T10:03:37;5.13;;;3.53;;
14748;SDS011;7466;53.574;9.976;2023-06-10T10:06:09;8.80;;;3.60;;
14748;SDS011;7466;53.574;9.976;2023-06-10T10:08:36;8.63;;;3.45;;
14748;SDS011;7466;53.574;9.976;2023-06-10T10:11:04;4.38;;;3.67;;
14748;SDS011;7466;53.574;9.976;2023-06-10T10:13:32;8.20;;;3.60;;
14748;SDS011;7466;53.574;9.976;2023-06-10T10:16:01;8.50;;;3.15;;
14748;SDS011;7466;53.574;9.976;2023-06-10T10:18:34;7.57;;;3.47;;
14748;SDS011;7466;53.574;9.976;2023-06-10T10:21:09;5.90;;;3.80;;
14748;SDS011;7466;53.574;9.976;2023-06-10T10:23:40;4.65;;;3.45;;
14748;SDS011;7466;53.574;9.976;2023-06-10T10:26:15;6.53;;;3.42;;
14748;SDS011;7466;53.574;9.976;2023-06-10T10:28:45;4.90;;;3.63;;
14748;SDS011;7466;53.574;9.976;2023-06-10T10:31:18;5.85;;;3.40;;
14748;SDS011;7466;53.574;9.976;2023-06-10T10:33:48;7.78;;;3.75;;
14748;SDS011;7466;53.574;9.976;2023-06-10T10:36:21;6.60;;;3.90;;
14748;SDS011;7466;53.574;9.976;2023-06-10T10:38:48;5.82;;;3.80;;
14748;SDS011;7466;53.574;9.976;2023-06-10T10:41:16;8.00;;;3.63;;
14748;SDS011;7466;53.574;9.976;2023-06-10T10:43:45;6.60;;;3.75;;
14748;SDS011;7466;53.574;9.976;2023-06-10T10:46:14;6.53;;;3.90;;
14748;SDS011;7466;53.574;9.976;2023-06-10T10:48:42;4.68;;;4.00;;
14748;SDS011;7466;53.574;9.976;2023-06-10T10:51:10;6.50;;;3.75;;
14748;SDS011;7466;53.574;9.976;2023-06-10T10:53:38;6.80;;;3.60;;
14748;SDS011;7466;53.574;9.976;2023-06-10T10:56:05;8.45;;;3.72;;
14748;SDS011;7466;53.574;9.976;2023-06-10T10:58:34;7.75;;;3.80;;
14748;SDS011;7466;53.574;9.976;2023-06-10T11:01:09;10.93;;;4.05;;
14748;SDS011;7466;53.574;9.976;2023-06-10T11:03:41;7.38;;;3.95;;
14748;SDS011;7466;53.574;9.976;2023-06-10T11:06:12;6.65;;;3.97;;
14748;SDS011;7466;53.574;9.976;2023-06-10T11:08:46;6.40;;;4.03;;
14748;SDS011;7466;53.574;9.976;2023-06-10T11:11:18;6.18;;;3.60;;
14748;SDS011;7466;53.574;9.976;2023-06-10T11:14:06;4.38;;;3.47;;
14748;SDS011;7466;53.574;9.976;2023-06-10T11:16:38;9.70;;;4.25;;
14748;SDS011;7466;53.574;9.976;2023-06-10T11:19:07;6.55;;;3.80;;
14748;SDS011;7466;53.574;9.976;2023-06-10T11:21:37;6.18;;;3.95;;
14748;SDS011;7466;53.574;9.976;2023-06-10T11:24:23;5.18;;;3.88;;
14748;SDS011;7466;53.574;9.976;2023-06-10T11:26:51;5.78;;;3.90;;
14748;SDS011;7466;53.574;9.976;2023-06-10T11:29:19;8.13;;;3.78;;
14748;SDS011;7466;53.574;9.976;2023-06-10T11:31:49;6.22;;;3.90;;
14748;SDS011;7466;53.574;9.976;2023-06-10T11:34:21;7.55;;;4.00;;
14748;SDS011;7466;53.574;9.976;2023-06-10T11:36:52;8.43;;;3.85;;
14748;SDS011;7466;53.574;9.976;2023-06-10T11:39:20;7.60;;;4.07;;
14748;SDS011;7466;53.574;9.976;2023-06-10T11:41:49;4.47;;;3.85;;
14748;SDS011;7466;53.574;9.976;2023-06-10T11:44:17;7.30;;;4.05;;
14748;SDS011;7466;53.574;9.976;2023-06-10T11:46:47;7.20;;;4.25;;
14748;SDS011;7466;53.574;9.976;2023-06-10T11:49:14;7.65;;;4.15;;
14748;SDS011;7466;53.574;9.976;2023-06-10T11:51:41;6.82;;;4.22;;
14748;SDS011;7466;53.574;9.976;2023-06-10T11:54:14;5.60;;;4.43;;
14748;SDS011;7466;53.574;9.976;2023-06-10T11:56:41;7.70;;;4.40;;
14748;SDS011;7466;53.574;9.976;2023-06-10T11:59:08;7.25;;;4.22;;
14748;SDS011;7466;53.574;9.976;2023-06-10T12:01:36;5.75;;;3.92;;
14748;SDS011;7466;53.574;9.976;2023-06-10T12:04:05;6.65;;;4.28;;
14748;SDS011;7466;53.574;9.976;2023-06-10T12:06:40;7.75;;;4.50;;
14748;SDS011;7466;53.574;9.976;2023-06-10T12:09:13;8.60;;;4.40;;
14748;SDS011;7466;53.574;9.976;2023-06-10T12:11:40;7.03;;;4.60;;
14748;SDS011;7466;53.574;9.976;2023-06-10T12:14:08;4.93;;;4.10;;
14748;SDS011;7466;53.574;9.976;2023-06-10T12:16:37;6.93;;;3.75;;
14748;SDS011;7466;53.574;9.976;2023-06-10T12:19:04;8.23;;;4.22;;
14748;SDS011;7466;53.574;9.976;2023-06-10T12:21:32;4.80;;;4.40;;
14748;SDS011;7466;53.574;9.976;2023-06-10T12:24:04;6.88;;;4.35;;
14748;SDS011;7466;53.574;9.976;2023-06-10T12:26:36;7.10;;;4.60;;
14748;SDS011;7466;53.574;9.976;2023-06-10T12:29:12;5.22;;;4.50;;
14748;SDS011;7466;53.574;9.976;2023-06-10T12:31:57;9.40;;;4.90;;
14748;SDS011;7466;53.574;9.976;2023-06-10T12:34:32;4.32;;;4.00;;
14748;SDS011;7466;53.574;9.976;2023-06-10T12:37:01;6.70;;;4.35;;
14748;SDS011;7466;53.574;9.976;2023-06-10T12:39:29;6.57;;;4.40;;
14748;SDS011;7466;53.574;9.976;2023-06-10T12:41:57;6.68;;;4.35;;
14748;SDS011;7466;53.574;9.976;2023-06-10T12:44:33;9.15;;;4.60;;
14748;SDS011;7466;53.574;9.976;2023-06-10T12:47:08;6.28;;;4.28;;
14748;SDS011;7466;53.574;9.976;2023-06-10T12:49:37;6.55;;;4.72;;
14748;SDS011;7466;53.574;9.976;2023-06-10T12:52:05;7.20;;;4.32;;
14748;SDS011;7466;53.574;9.976;2023-06-10T12:54:32;7.25;;;4.30;;
14748;SDS011;7466;53.574;9.976;2023-06-10T12:56:59;8.13;;;4.22;;
14748;SDS011;7466;53.574;9.976;2023-06-10T12:59:27;5.70;;;4.30;;
14748;SDS011;7466;53.574;9.976;2023-06-10T13:01:54;5.93;;;4.38;;
14748;SDS011;7466;53.574;9.976;2023-06-10T13:04:23;5.68;;;4.53;;
14748;SDS011;7466;53.574;9.976;2023-06-10T13:06:49;5.45;;;4.10;;
14748;SDS011;7466;53.574;9.976;2023-06-10T13:09:16;8.02;;;4.50;;
14748;SDS011;7466;53.574;9.976;2023-06-10T13:11:43;6.82;;;3.80;;
14748;SDS011;7466;53.574;9.976;2023-06-10T13:14:10;5.38;;;4.18;;
14748;SDS011;7466;53.574;9.976;2023-06-10T13:16:38;8.77;;;4.40;;
14748;SDS011;7466;53.574;9.976;2023-06-10T13:19:05;6.47;;;3.95;;
14748;SDS011;7466;53.574;9.976;2023-06-10T13:21:33;5.82;;;3.70;;
14748;SDS011;7466;53.574;9.976;2023-06-10T13:24:00;9.18;;;4.38;;
14748;SDS011;7466;53.574;9.976;2023-06-10T13:26:28;11.93;;;4.30;;
14748;SDS011;7466;53.574;9.976;2023-06-10T13:28:55;6.63;;;4.40;;
14748;SDS011;7466;53.574;9.976;2023-06-10T13:31:22;7.65;;;4.18;;
14748;SDS011;7466;53.574;9.976;2023-06-10T13:33:48;5.00;;;3.90;;
14748;SDS011;7466;53.574;9.976;2023-06-10T13:36:15;6.95;;;3.90;;
14748;SDS011;7466;53.574;9.976;2023-06-10T13:38:43;5.45;;;3.50;;
14748;SDS011;7466;53.574;9.976;2023-06-10T13:41:10;5.47;;;3.67;;
14748;SDS011;7466;53.574;9.976;2023-06-10T13:43:37;4.72;;;3.78;;
14748;SDS011;7466;53.574;9.976;2023-06-10T13:46:04;7.38;;;3.70;;
14748;SDS011;7466;53.574;9.976;2023-06-10T13:48:31;5.00;;;3.72;;
14748;SDS011;7466;53.574;9.976;2023-06-10T13:50:58;6.13;;;4.00;;
14748;SDS011;7466;53.574;9.976;2023-06-10T13:53:25;5.95;;;3.70;;
14748;SDS011;7466;53.574;9.976;2023-06-10T13:55:54;3.85;;;3.40;;
14748;SDS011;7466;53.574;9.976;2023-06-10T13:58:20;7.32;;;3.80;;
14748;SDS011;7466;53.574;9.976;2023-06-10T14:00:47;10.43;;;3.80;;
14748;SDS011;7466;53.574;9.976;2023-06-10T14:03:14;6.13;;;3.58;;
14748;SDS011;7466;53.574;9.976;2023-06-10T14:05:41;6.82;;;3.83;;
14748;SDS011;7466;53.574;9.976;2023-06-10T14:08:08;6.47;;;3.70;;
14748;SDS011;7466;53.574;9.976;2023-06-10T14:10:34;6.00;;;3.50;;
14748;SDS011;7466;53.574;9.976;2023-06-10T14:13:02;4.60;;;3.35;;
14748;SDS011;7466;53.574;9.976;2023-06-10T14:15:30;6.97;;;3.47;;
14748;SDS011;7466;53.574;9.976;2023-06-10T14:17:57;9.63;;;3.50;;
14748;SDS011;7466;53.574;9.976;2023-06-10T14:20:24;6.55;;;3.10;;
14748;SDS011;7466;53.574;9.976;2023-06-10T14:22:51;5.72;;;3.10;;
14748;SDS011;7466;53.574;9.976;2023-06-10T14:25:18;6.53;;;3.60;;
14748;SDS011;7466;53.574;9.976;2023-06-10T14:27:45;5.78;;;3.42;;
14748;SDS011;7466;53.574;9.976;2023-06-10T14:30:13;6.70;;;3.63;;
14748;SDS011;7466;53.574;9.976;2023-06-10T14:32:40;4.93;;;3.35;;
14748;SDS011;7466;53.574;9.976;2023-06-10T14:35:07;5.55;;;3.60;;
14748;SDS011;7466;53.574;9.976;2023-06-10T14:37:34;6.00;;;3.30;;
14748;SDS011;7466;53.574;9.976;2023-06-10T14:40:01;9.85;;;3.75;;
14748;SDS011;7466;53.574;9.976;2023-06-10T14:42:29;5.57;;;3.25;;
14748;SDS011;7466;53.574;9.976;2023-06-10T14:44:57;5.53;;;3.60;;
14748;SDS011;7466;53.574;9.976;2023-06-10T14:47:25;3.47;;;3.17;;
14748;SDS011;7466;53.574;9.976;2023-06-10T14:49:52;10.00;;;3.97;;
14748;SDS011;7466;53.574;9.976;2023-06-10T14:52:19;8.35;;;3.70;;
14748;SDS011;7466;53.574;9.976;2023-06-10T14:54:46;6.80;;;3.72;;
14748;SDS011;7466;53.574;9.976;2023-06-10T14:57:12;6.22;;;3.17;;
14748;SDS011;7466;53.574;9.976;2023-06-10T14:59:39;4.80;;;3.55;;
14748;SDS011;7466;53.574;9.976;2023-06-10T15:02:06;4.57;;;3.30;;
14748;SDS011;7466;53.574;9.976;2023-06-10T15:04:34;7.65;;;3.85;;
14748;SDS011;7466;53.574;9.976;2023-06-10T15:07:01;5.40;;;3.35;;